createdAt,value
2023-02-02T00:00:08.576Z,14.19
2023-02-02T00:01:11.485Z,19.67
2023-02-02T00:02:13.937Z,20.07
2023-02-02T00:03:16.489Z,27.27
2023-02-02T00:04:18.989Z,26.98
2023-02-02T00:05:21.935Z,22.01
2023-02-02T00:06:24.812Z,24.99
2023-02-02T00:07:27.365Z,23.78
2023-02-02T00:08:29.927Z,25.25
2023-02-02T00:09:32.537Z,23.53
2023-02-02T00:10:35.492Z,22.41
2023-02-02T00:11:37.949Z,25.32
2023-02-02T00:12:40.507Z,24.90
2023-02-02T00:13:43.061Z,27.15
2023-02-02T00:14:45.657Z,26.45
2023-02-02T00:15:48.203Z,28.01
2023-02-02T00:16:50.867Z,22.97
2023-02-02T00:17:53.409Z,29.67
2023-02-02T00:18:56.001Z,23.55
2023-02-02T00:19:58.583Z,29.51
2023-02-02T00:21:01.249Z,28.79
2023-02-02T00:22:03.805Z,25.79
2023-02-02T00:23:06.391Z,29.70
2023-02-02T00:24:08.973Z,20.56
2023-02-02T00:25:11.533Z,30.52
2023-02-02T00:26:14.319Z,24.86
2023-02-02T00:27:16.912Z,24.72
2023-02-02T00:28:19.873Z,23.54
2023-02-02T00:29:22.427Z,23.15
2023-02-02T00:30:25.371Z,23.88
2023-02-02T00:31:27.985Z,29.20
2023-02-02T00:32:30.609Z,25.44
2023-02-02T00:33:33.168Z,23.37
2023-02-02T00:34:35.722Z,27.33
2023-02-02T00:35:38.278Z,24.19
2023-02-02T00:36:41.041Z,23.14
2023-02-02T00:37:43.643Z,24.27
2023-02-02T00:38:46.206Z,25.05
2023-02-02T00:39:48.768Z,32.56
2023-02-02T00:40:51.422Z,25.27
2023-02-02T00:41:53.979Z,28.63
2023-02-02T00:42:56.550Z,25.73
2023-02-02T00:43:59.110Z,27.46
2023-02-02T00:45:01.675Z,25.06
2023-02-02T00:46:04.467Z,22.67
2023-02-02T00:47:06.993Z,25.34
2023-02-02T00:48:09.454Z,24.95
2023-02-02T00:49:12.024Z,30.14
2023-02-02T00:50:15.097Z,33.96
2023-02-02T00:51:17.652Z,27.21
2023-02-02T00:52:20.213Z,28.32
2023-02-02T00:53:22.775Z,27.29
2023-02-02T00:54:25.365Z,26.85
2023-02-02T00:55:28.200Z,29.93
2023-02-02T00:56:31.167Z,24.54
2023-02-02T00:57:33.740Z,25.75
2023-02-02T00:58:36.297Z,29.45
2023-02-02T00:59:38.850Z,25.91
2023-02-02T01:00:41.632Z,28.51
2023-02-02T01:01:44.161Z,21.01
2023-02-02T01:02:46.776Z,25.63
2023-02-02T01:03:49.345Z,21.16
2023-02-02T01:04:51.896Z,25.61
2023-02-02T01:05:54.493Z,20.85
2023-02-02T01:06:57.149Z,23.85
2023-02-02T01:07:59.707Z,29.23
2023-02-02T01:09:02.281Z,25.71
2023-02-02T01:10:04.848Z,24.07
2023-02-02T01:11:07.440Z,27.67
2023-02-02T01:12:10.000Z,26.39
2023-02-02T01:13:12.562Z,27.69
2023-02-02T01:14:15.117Z,28.40
2023-02-02T01:15:17.675Z,27.42
2023-02-02T01:16:20.694Z,28.88
2023-02-02T01:17:23.228Z,28.97
2023-02-02T01:18:25.801Z,28.93
2023-02-02T01:19:28.268Z,26.55
2023-02-02T01:20:30.920Z,31.73
2023-02-02T01:21:33.515Z,27.18
2023-02-02T01:22:36.113Z,32.15
2023-02-02T01:23:38.668Z,27.88
2023-02-02T01:24:41.241Z,31.30
2023-02-02T01:25:43.794Z,27.96
2023-02-02T01:26:46.735Z,33.51
2023-02-02T01:27:49.322Z,31.47
2023-02-02T01:28:52.027Z,26.70
2023-02-02T01:29:54.577Z,29.23
2023-02-02T01:30:57.668Z,27.52
2023-02-02T01:32:00.453Z,30.31
2023-02-02T01:33:03.299Z,32.09
2023-02-02T01:34:05.860Z,28.97
2023-02-02T01:35:08.414Z,27.93
2023-02-02T01:36:11.282Z,26.62
2023-02-02T01:37:13.840Z,27.33
2023-02-02T01:38:16.405Z,24.47
2023-02-02T01:39:18.963Z,26.54
2023-02-02T01:40:21.724Z,24.21
2023-02-02T01:41:24.291Z,24.56
2023-02-02T01:42:26.755Z,28.81
2023-02-02T01:43:29.316Z,25.93
2023-02-02T01:44:31.867Z,29.57
2023-02-02T01:45:34.479Z,29.05
2023-02-02T01:46:37.410Z,27.94
2023-02-02T01:47:39.996Z,28.75
2023-02-02T01:48:42.551Z,29.77
2023-02-02T01:49:45.105Z,25.34
2023-02-02T01:50:48.072Z,24.70
2023-02-02T01:51:50.628Z,26.82
2023-02-02T01:52:53.690Z,24.73
2023-02-02T01:53:56.402Z,26.61
2023-02-02T01:54:58.996Z,27.24
2023-02-02T01:56:01.530Z,26.59
2023-02-02T01:57:04.086Z,31.20
2023-02-02T01:58:06.662Z,28.51
2023-02-02T01:59:09.209Z,27.19
2023-02-02T02:00:12.389Z,29.06
2023-02-02T02:01:14.980Z,28.35
2023-02-02T02:02:17.735Z,31.51
2023-02-02T02:03:20.259Z,31.28
2023-02-02T02:04:22.821Z,33.52
2023-02-02T02:05:25.664Z,26.67
2023-02-02T02:06:28.751Z,28.57
2023-02-02T02:07:31.330Z,24.07
2023-02-02T02:08:33.886Z,26.11
2023-02-02T02:09:36.444Z,26.65
2023-02-02T02:10:39.117Z,25.08
2023-02-02T02:11:41.695Z,24.57
2023-02-02T02:12:44.172Z,23.20
2023-02-02T02:13:46.767Z,27.00
2023-02-02T02:14:49.347Z,25.49
2023-02-02T02:15:51.882Z,25.60
2023-02-02T02:16:54.932Z,24.53
2023-02-02T02:17:57.498Z,25.77
2023-02-02T02:19:00.093Z,24.58
2023-02-02T02:20:02.755Z,24.15
2023-02-02T02:21:05.308Z,22.09
2023-02-02T02:22:07.866Z,29.03
2023-02-02T02:23:10.395Z,23.30
2023-02-02T02:24:12.990Z,23.66
2023-02-02T02:25:15.559Z,21.33
2023-02-02T02:26:18.226Z,25.71
2023-02-02T02:27:20.768Z,24.31
2023-02-02T02:28:23.336Z,22.66
2023-02-02T02:29:25.900Z,25.72
2023-02-02T02:30:28.567Z,22.68
2023-02-02T02:31:31.221Z,22.49
2023-02-02T02:32:33.882Z,24.37
2023-02-02T02:33:36.442Z,22.73
2023-02-02T02:34:38.907Z,20.79
2023-02-02T02:35:41.490Z,26.43
2023-02-02T02:36:44.244Z,26.61
2023-02-02T02:37:46.796Z,26.63
2023-02-02T02:38:49.348Z,25.95
2023-02-02T02:39:51.938Z,25.94
2023-02-02T02:40:54.587Z,25.55
2023-02-02T02:41:57.140Z,24.51
2023-02-02T02:42:59.718Z,22.36
2023-02-02T02:44:02.246Z,27.27
2023-02-02T02:45:04.741Z,30.21
2023-02-02T02:46:07.738Z,26.99
2023-02-02T02:47:10.255Z,24.81
2023-02-02T02:48:12.817Z,24.50
2023-02-02T02:49:15.371Z,26.81
2023-02-02T02:50:18.127Z,27.51
2023-02-02T02:51:20.643Z,30.69
2023-02-02T02:52:23.099Z,26.55
2023-02-02T02:53:25.654Z,30.14
2023-02-02T02:54:28.171Z,25.63
2023-02-02T02:55:30.719Z,25.88
2023-02-02T02:56:33.775Z,26.47
2023-02-02T02:57:36.335Z,25.85
2023-02-02T02:58:38.896Z,24.27
2023-02-02T02:59:41.459Z,29.76
2023-02-02T03:00:44.114Z,27.13
2023-02-02T03:01:46.711Z,25.13
2023-02-02T03:02:49.463Z,28.12
2023-02-02T03:03:52.125Z,25.17
2023-02-02T03:04:54.672Z,26.31
2023-02-02T03:05:57.231Z,28.19
2023-02-02T03:07:00.188Z,28.78
2023-02-02T03:08:02.788Z,27.19
2023-02-02T03:09:05.354Z,25.93
2023-02-02T03:10:08.855Z,26.25
2023-02-02T03:11:11.397Z,30.20
2023-02-02T03:12:13.852Z,26.45
2023-02-02T03:13:16.312Z,29.27
2023-02-02T03:14:19.001Z,29.29
2023-02-02T03:15:21.544Z,28.70
2023-02-02T03:16:24.493Z,30.48
2023-02-02T03:17:27.041Z,28.03
2023-02-02T03:18:29.600Z,25.45
2023-02-02T03:19:32.158Z,31.79
2023-02-02T03:20:34.812Z,31.11
2023-02-02T03:21:37.392Z,26.65
2023-02-02T03:22:39.929Z,28.97
2023-02-02T03:23:42.479Z,26.69
2023-02-02T03:24:45.079Z,30.05
2023-02-02T03:25:47.635Z,27.82
2023-02-02T03:26:50.633Z,35.22
2023-02-02T03:27:53.254Z,30.94
2023-02-02T03:28:55.954Z,32.38
2023-02-02T03:29:58.562Z,27.45
2023-02-02T03:31:01.380Z,28.81
2023-02-02T03:32:04.164Z,27.50
2023-02-02T03:33:06.714Z,27.89
2023-02-02T03:34:09.169Z,28.67
2023-02-02T03:35:11.779Z,26.03
2023-02-02T03:36:14.553Z,33.33
2023-02-02T03:37:17.101Z,27.82
2023-02-02T03:38:19.666Z,22.76
2023-02-02T03:39:22.211Z,30.12
2023-02-02T03:40:24.958Z,24.07
2023-02-02T03:41:27.514Z,24.98
2023-02-02T03:42:30.072Z,24.60
2023-02-02T03:43:32.625Z,35.01
2023-02-02T03:44:35.184Z,23.23
2023-02-02T03:45:37.759Z,31.63
2023-02-02T03:46:40.355Z,31.84
2023-02-02T03:47:43.053Z,27.59
2023-02-02T03:48:45.541Z,30.02
2023-02-02T03:49:48.095Z,26.29
2023-02-02T03:50:51.086Z,28.91
2023-02-02T03:51:53.622Z,31.07
2023-02-02T03:52:56.175Z,30.11
2023-02-02T03:53:58.635Z,29.99
2023-02-02T03:55:01.187Z,32.59
2023-02-02T03:56:04.081Z,26.69
2023-02-02T03:57:06.636Z,33.80
2023-02-02T03:58:09.195Z,33.57
2023-02-02T03:59:11.766Z,31.44
2023-02-02T04:00:14.717Z,28.14
2023-02-02T04:01:17.281Z,31.54
2023-02-02T04:02:19.865Z,31.75
2023-02-02T04:03:22.402Z,27.32
2023-02-02T04:04:24.951Z,25.44
2023-02-02T04:05:27.502Z,27.33
2023-02-02T04:06:30.814Z,30.27
2023-02-02T04:07:33.384Z,28.75
2023-02-02T04:08:35.947Z,29.69
2023-02-02T04:09:38.493Z,26.93
2023-02-02T04:10:41.152Z,34.38
2023-02-02T04:11:43.741Z,29.47
2023-02-02T04:12:46.292Z,27.36
2023-02-02T04:13:48.955Z,26.52
2023-02-02T04:14:51.505Z,33.34
2023-02-02T04:15:53.973Z,32.74
2023-02-02T04:16:56.864Z,29.96
2023-02-02T04:17:59.426Z,28.70
2023-02-02T04:19:01.994Z,33.99
2023-02-02T04:20:04.473Z,30.49
2023-02-02T04:21:07.048Z,30.93
2023-02-02T04:22:09.598Z,33.41
2023-02-02T04:23:12.151Z,30.18
2023-02-02T04:24:14.717Z,30.52
2023-02-02T04:25:17.261Z,28.83
2023-02-02T04:26:20.001Z,28.99
2023-02-02T04:27:22.589Z,43.45
2023-02-02T04:28:25.137Z,31.38
2023-02-02T04:29:27.686Z,32.79
2023-02-02T04:30:30.672Z,34.64
2023-02-02T04:31:33.243Z,29.14
2023-02-02T04:32:35.958Z,30.54
2023-02-02T04:33:38.415Z,33.18
2023-02-02T04:34:40.978Z,29.97
2023-02-02T04:35:43.540Z,32.78
2023-02-02T04:36:46.302Z,31.82
2023-02-02T04:37:49.040Z,34.56
2023-02-02T04:38:51.641Z,35.61
2023-02-02T04:39:54.195Z,32.20
2023-02-02T04:40:56.959Z,36.38
2023-02-02T04:41:59.512Z,37.81
2023-02-02T04:43:02.072Z,31.30
2023-02-02T04:44:04.549Z,28.93
2023-02-02T04:45:07.024Z,34.53
2023-02-02T04:46:09.998Z,32.77
2023-02-02T04:47:12.720Z,35.17
2023-02-02T04:48:15.268Z,36.55
2023-02-02T04:49:17.837Z,34.29
2023-02-02T04:50:20.523Z,36.29
2023-02-02T04:51:23.110Z,38.19
2023-02-02T04:52:25.671Z,32.01
2023-02-02T04:53:28.227Z,34.04
2023-02-02T04:54:30.821Z,38.79
2023-02-02T04:55:33.431Z,35.30
2023-02-02T04:56:36.068Z,32.11
2023-02-02T04:57:38.630Z,35.33
2023-02-02T04:58:41.239Z,37.12
2023-02-02T04:59:43.983Z,32.43
2023-02-02T05:00:46.824Z,32.91
2023-02-02T05:01:49.574Z,34.37
2023-02-02T05:02:52.110Z,32.77
2023-02-02T05:03:54.575Z,38.59
2023-02-02T05:04:57.127Z,35.63
2023-02-02T05:05:59.694Z,34.07
2023-02-02T05:07:02.258Z,29.47
2023-02-02T05:08:04.824Z,29.62
2023-02-02T05:09:07.421Z,34.27
2023-02-02T05:10:10.189Z,28.35
2023-02-02T05:11:12.753Z,36.27
2023-02-02T05:12:15.311Z,34.11
2023-02-02T05:13:17.888Z,39.50
2023-02-02T05:14:20.461Z,32.53
2023-02-02T05:15:23.419Z,36.61
2023-02-02T05:16:28.785Z,30.90
2023-02-02T05:17:30.867Z,35.41
2023-02-02T05:18:33.424Z,35.59
2023-02-02T05:19:35.985Z,35.38
2023-02-02T05:20:38.763Z,33.53
2023-02-02T05:21:41.328Z,36.39
2023-02-02T05:22:43.891Z,43.23
2023-02-02T05:23:46.454Z,34.97
2023-02-02T05:24:49.069Z,34.73
2023-02-02T05:25:51.627Z,34.86
2023-02-02T05:26:54.492Z,38.44
2023-02-02T05:27:57.164Z,37.18
2023-02-02T05:28:59.755Z,37.83
2023-02-02T05:30:02.453Z,41.24
2023-02-02T05:31:05.062Z,37.00
2023-02-02T05:32:07.636Z,30.21
2023-02-02T05:33:10.158Z,37.09
2023-02-02T05:34:12.722Z,36.15
2023-02-02T05:35:15.289Z,36.33
2023-02-02T05:36:18.173Z,37.10
2023-02-02T05:37:20.739Z,37.29
2023-02-02T05:38:23.291Z,38.55
2023-02-02T05:39:25.854Z,36.23
2023-02-02T05:40:29.139Z,35.53
2023-02-02T05:41:31.709Z,39.16
2023-02-02T05:42:34.268Z,38.35
2023-02-02T05:43:36.826Z,36.07
2023-02-02T05:44:39.387Z,45.00
2023-02-02T05:45:41.964Z,32.04
2023-02-02T05:46:44.827Z,37.19
2023-02-02T05:47:47.395Z,33.50
2023-02-02T05:48:49.955Z,34.31
2023-02-02T05:49:52.507Z,36.64
2023-02-02T05:50:55.220Z,33.71
2023-02-02T05:51:57.773Z,38.53
2023-02-02T05:53:00.233Z,33.64
2023-02-02T05:54:02.800Z,38.39
2023-02-02T05:55:05.351Z,35.41
2023-02-02T05:56:08.632Z,40.94
2023-02-02T05:57:11.192Z,34.79
2023-02-02T05:58:13.751Z,35.10
2023-02-02T05:59:16.305Z,35.49
2023-02-02T06:00:19.171Z,35.89
2023-02-02T06:01:21.933Z,40.61
2023-02-02T06:02:24.556Z,42.60
2023-02-02T06:03:27.223Z,36.75
2023-02-02T06:04:29.896Z,34.94
2023-02-02T06:05:32.441Z,39.73
2023-02-02T06:06:35.215Z,35.67
2023-02-02T06:07:37.816Z,40.05
2023-02-02T06:08:40.418Z,38.73
2023-02-02T06:09:42.976Z,40.45
2023-02-02T06:10:45.633Z,34.45
2023-02-02T06:11:48.192Z,36.82
2023-02-02T06:12:50.797Z,36.07
2023-02-02T06:13:53.347Z,42.28
2023-02-02T06:14:55.916Z,42.77
2023-02-02T06:15:58.531Z,47.02
2023-02-02T06:17:01.334Z,39.74
2023-02-02T06:18:03.908Z,39.21
2023-02-02T06:19:06.664Z,44.78
2023-02-02T06:20:10.575Z,39.26
2023-02-02T06:21:13.118Z,43.36
2023-02-02T06:22:15.685Z,46.03
2023-02-02T06:23:18.252Z,37.19
2023-02-02T06:24:20.824Z,44.90
2023-02-02T06:25:23.747Z,42.00
2023-02-02T06:26:27.032Z,40.33
2023-02-02T06:27:29.919Z,42.21
2023-02-02T06:28:32.466Z,44.55
2023-02-02T06:29:35.022Z,38.17
2023-02-02T06:30:38.001Z,46.31
2023-02-02T06:31:41.223Z,46.88
2023-02-02T06:32:43.847Z,43.91
2023-02-02T06:33:46.427Z,39.01
2023-02-02T06:34:48.965Z,39.06
2023-02-02T06:35:51.580Z,35.23
2023-02-02T06:36:54.220Z,31.25
2023-02-02T06:37:56.776Z,34.98
2023-02-02T06:38:59.350Z,37.71
2023-02-02T06:40:01.907Z,33.79
2023-02-02T06:41:04.482Z,31.23
2023-02-02T06:42:20.448Z,37.73
2023-02-02T06:43:11.452Z,34.86
2023-02-02T06:44:14.004Z,32.71
2023-02-02T06:45:16.564Z,31.37
2023-02-02T06:46:19.514Z,33.45
2023-02-02T06:47:22.138Z,36.36
2023-02-02T06:48:24.702Z,28.45
2023-02-02T06:49:27.269Z,29.58
2023-02-02T06:50:30.131Z,32.03
2023-02-02T06:51:32.756Z,27.19
2023-02-02T06:52:35.321Z,31.40
2023-02-02T06:53:37.870Z,31.05
2023-02-02T06:54:40.527Z,33.12
2023-02-02T06:55:43.085Z,30.40
2023-02-02T06:56:45.870Z,27.06
2023-02-02T06:57:48.863Z,34.41
2023-02-02T06:58:51.423Z,35.62
2023-02-02T06:59:53.973Z,41.69
2023-02-02T07:00:56.849Z,39.29
2023-02-02T07:01:59.461Z,40.00
2023-02-02T07:03:02.039Z,42.84
2023-02-02T07:04:04.926Z,41.86
2023-02-02T07:05:07.451Z,34.31
2023-02-02T07:06:10.208Z,46.07
2023-02-02T07:07:12.809Z,40.15
2023-02-02T07:08:15.355Z,45.29
2023-02-02T07:09:17.927Z,49.85
2023-02-02T07:11:13.390Z,45.69
2023-02-02T07:11:24.945Z,52.69
2023-02-02T07:12:27.765Z,53.47
2023-02-02T07:13:30.282Z,50.24
2023-02-02T07:14:33.046Z,56.90
2023-02-02T07:15:35.751Z,53.83
2023-02-02T07:16:38.645Z,44.06
2023-02-02T07:17:41.223Z,51.93
2023-02-02T07:18:43.764Z,42.29
2023-02-02T07:19:46.323Z,43.47
2023-02-02T07:20:49.085Z,42.15
2023-02-02T07:21:51.642Z,44.05
2023-02-02T07:22:54.243Z,30.92
2023-02-02T07:23:56.789Z,34.98
2023-02-02T07:24:59.346Z,34.09
2023-02-02T07:26:01.905Z,35.97
2023-02-02T07:27:04.468Z,28.21
2023-02-02T07:28:07.024Z,36.99
2023-02-02T07:29:09.582Z,31.22
2023-02-02T07:30:12.756Z,32.11
2023-02-02T07:31:15.483Z,28.48
2023-02-02T07:32:18.182Z,34.10
2023-02-02T07:33:20.778Z,29.30
2023-02-02T07:34:23.351Z,29.77
2023-02-02T07:35:26.099Z,30.99
2023-02-02T07:36:29.170Z,32.62
2023-02-02T07:37:31.728Z,31.79
2023-02-02T07:38:34.324Z,36.90
2023-02-02T07:39:36.884Z,23.30
2023-02-02T07:40:39.734Z,32.91
2023-02-02T07:41:42.287Z,30.02
2023-02-02T07:42:46.391Z,26.29
2023-02-02T07:43:49.201Z,30.30
2023-02-02T07:44:51.767Z,32.01
2023-02-02T07:45:54.342Z,28.41
2023-02-02T07:46:56.972Z,31.02
2023-02-02T07:47:59.550Z,29.33
2023-02-02T07:49:02.417Z,33.78
2023-02-02T07:50:05.373Z,26.23
2023-02-02T07:51:07.926Z,28.11
2023-02-02T07:52:10.490Z,28.92
2023-02-02T07:53:13.041Z,30.75
2023-02-02T07:54:15.647Z,22.89
2023-02-02T07:55:18.196Z,32.51
2023-02-02T07:56:21.064Z,28.53
2023-02-02T07:57:23.725Z,20.89
2023-02-02T07:58:26.286Z,28.75
2023-02-02T07:59:31.267Z,29.27
2023-02-02T08:00:33.605Z,28.82
2023-02-02T08:01:36.157Z,27.41
2023-02-02T08:02:38.684Z,27.60
2023-02-02T08:03:41.231Z,29.33
2023-02-02T08:04:43.824Z,28.99
2023-02-02T08:05:46.292Z,33.83
2023-02-02T08:06:48.969Z,32.27
2023-02-02T08:07:51.528Z,27.13
2023-02-02T08:08:54.083Z,25.93
2023-02-02T08:09:56.645Z,28.56
2023-02-02T08:10:59.314Z,26.28
2023-02-02T08:12:01.915Z,24.91
2023-02-02T08:13:04.721Z,28.23
2023-02-02T08:14:07.278Z,27.74
2023-02-02T08:15:10.904Z,22.39
2023-02-02T08:16:14.344Z,29.15
2023-02-02T08:17:16.848Z,23.23
2023-02-02T08:18:19.398Z,29.99
2023-02-02T08:19:21.950Z,26.10
2023-02-02T08:20:24.950Z,27.54
2023-02-02T08:21:27.593Z,26.72
2023-02-02T08:22:30.129Z,28.57
2023-02-02T08:23:32.689Z,28.73
2023-02-02T08:24:35.243Z,27.63
2023-02-02T08:25:37.802Z,27.80
2023-02-02T08:26:40.367Z,27.14
2023-02-02T08:27:42.903Z,28.60
2023-02-02T08:28:45.479Z,29.36
2023-02-02T08:29:48.024Z,25.51
2023-02-02T08:30:50.752Z,25.03
2023-02-02T08:31:53.484Z,26.47
2023-02-02T08:32:56.309Z,24.99
2023-02-02T08:33:58.861Z,25.91
2023-02-02T08:35:01.433Z,29.45
2023-02-02T08:36:04.047Z,27.24
2023-02-02T08:37:06.598Z,27.92
2023-02-02T08:38:09.148Z,25.45
2023-02-02T08:39:11.700Z,22.51
2023-02-02T08:40:14.413Z,22.20
2023-02-02T08:41:17.063Z,23.87
2023-02-02T08:42:19.604Z,26.23
2023-02-02T08:43:22.167Z,22.75
2023-02-02T08:44:24.719Z,24.17
2023-02-02T08:46:04.028Z,25.53
2023-02-02T08:46:33.830Z,28.03
2023-02-02T08:47:36.465Z,25.96
2023-02-02T08:48:39.427Z,22.20
2023-02-02T08:49:42.070Z,24.10
2023-02-02T08:50:44.730Z,25.81
2023-02-02T08:51:47.323Z,23.61
2023-02-02T08:52:49.881Z,22.80
2023-02-02T08:53:52.439Z,25.70
2023-02-02T08:54:55.011Z,22.11
2023-02-02T08:55:57.553Z,26.55
2023-02-02T08:57:00.569Z,24.42
2023-02-02T08:58:03.108Z,26.99
2023-02-02T08:59:05.665Z,27.61
2023-02-02T09:00:08.727Z,21.96
2023-02-02T09:01:11.335Z,21.18
2023-02-02T09:02:14.197Z,24.44
2023-02-02T09:03:16.805Z,17.91
2023-02-02T09:04:19.382Z,20.58
2023-02-02T09:05:22.053Z,19.13
2023-02-02T09:06:25.096Z,18.87
2023-02-02T09:07:27.655Z,22.30
2023-02-02T09:08:30.244Z,23.95
2023-02-02T09:09:32.784Z,20.89
2023-02-02T09:10:35.442Z,20.85
2023-02-02T09:11:38.007Z,25.83
2023-02-02T09:12:40.564Z,15.70
2023-02-02T09:13:43.138Z,27.42
2023-02-02T09:14:45.689Z,19.11
2023-02-02T09:15:48.262Z,20.57
2023-02-02T09:16:51.412Z,20.11
2023-02-02T09:17:54.149Z,19.59
2023-02-02T09:18:56.757Z,22.95
2023-02-02T09:19:59.308Z,17.76
2023-02-02T09:21:02.186Z,18.40
2023-02-02T09:22:04.732Z,15.02
2023-02-02T09:23:07.300Z,20.27
2023-02-02T09:24:09.887Z,17.61
2023-02-02T09:25:12.451Z,18.52
2023-02-02T09:26:15.219Z,18.43
2023-02-02T09:27:17.770Z,19.63
2023-02-02T09:28:20.340Z,19.14
2023-02-02T09:29:22.939Z,20.03
2023-02-02T09:30:25.903Z,22.31
2023-02-02T09:31:28.508Z,19.39
2023-02-02T09:32:31.235Z,22.21
2023-02-02T09:33:33.794Z,20.68
2023-02-02T09:34:36.405Z,26.31
2023-02-02T09:35:38.947Z,21.65
2023-02-02T09:36:41.933Z,24.44
2023-02-02T09:37:44.881Z,27.31
2023-02-02T09:38:47.468Z,22.31
2023-02-02T09:39:50.034Z,20.93
2023-02-02T09:40:52.909Z,18.77
2023-02-02T09:41:55.469Z,21.39
2023-02-02T09:42:58.041Z,22.80
2023-02-02T09:44:00.596Z,20.71
2023-02-02T09:45:03.487Z,24.43
2023-02-02T09:46:06.588Z,21.26
2023-02-02T09:47:09.218Z,22.77
2023-02-02T09:48:11.771Z,24.32
2023-02-02T09:49:14.329Z,23.35
2023-02-02T09:50:17.508Z,25.36
2023-02-02T09:51:20.083Z,20.18
2023-02-02T09:52:22.631Z,26.62
2023-02-02T09:53:25.512Z,20.92
2023-02-02T09:54:28.058Z,27.43
2023-02-02T09:55:30.627Z,24.03
2023-02-02T09:56:33.486Z,21.27
2023-02-02T09:57:36.045Z,24.22
2023-02-02T09:58:38.606Z,26.13
2023-02-02T09:59:41.062Z,22.51
2023-02-02T10:00:43.936Z,25.38
2023-02-02T10:01:46.500Z,23.23
2023-02-02T10:02:49.057Z,23.17
2023-02-02T10:03:51.644Z,22.79
2023-02-02T10:04:54.190Z,23.27
2023-02-02T10:05:56.770Z,21.35
2023-02-02T10:06:59.650Z,21.61
2023-02-02T10:08:02.203Z,22.35
2023-02-02T10:09:04.763Z,22.17
2023-02-02T10:10:07.937Z,31.26
2023-02-02T10:11:10.541Z,27.03
2023-02-02T10:12:13.103Z,23.07
2023-02-02T10:13:15.646Z,19.36
2023-02-02T10:14:18.210Z,23.93
2023-02-02T10:15:21.288Z,28.26
2023-02-02T10:16:24.102Z,26.39
2023-02-02T10:17:26.648Z,24.72
2023-02-02T10:18:29.205Z,27.35
2023-02-02T10:19:31.804Z,26.50
2023-02-02T10:20:35.006Z,24.99
2023-02-02T10:21:37.564Z,25.71
2023-02-02T10:22:40.028Z,21.75
2023-02-02T10:23:42.593Z,24.03
2023-02-02T10:24:45.502Z,24.57
2023-02-02T10:25:48.060Z,26.51
2023-02-02T10:26:51.012Z,24.74
2023-02-02T10:27:53.584Z,27.65
2023-02-02T10:28:56.140Z,31.38
2023-02-02T10:29:58.701Z,32.16
2023-02-02T10:31:01.484Z,24.17
2023-02-02T10:32:04.443Z,31.79
2023-02-02T10:33:07.056Z,28.85
2023-02-02T10:34:09.591Z,32.70
2023-02-02T10:35:14.293Z,32.44
2023-02-02T10:36:16.867Z,34.48
2023-02-02T10:37:19.479Z,33.21
2023-02-02T10:38:23.168Z,33.83
2023-02-02T10:39:25.764Z,31.86
2023-02-02T10:40:28.520Z,32.45
2023-02-02T10:41:31.337Z,33.58
2023-02-02T10:42:33.923Z,33.33
2023-02-02T10:43:36.636Z,39.12
2023-02-02T10:44:39.201Z,41.56
2023-02-02T10:45:41.762Z,37.04
2023-02-02T10:46:45.030Z,42.18
2023-02-02T10:47:47.933Z,38.23
2023-02-02T10:48:50.715Z,45.07
2023-02-02T10:49:56.174Z,37.82
2023-02-02T10:50:58.140Z,33.62
2023-02-02T10:52:00.698Z,36.14
2023-02-02T10:53:03.285Z,37.99
2023-02-02T10:54:05.875Z,42.49
2023-02-02T10:55:08.425Z,33.04
2023-02-02T10:56:11.554Z,37.44
2023-02-02T10:57:14.108Z,41.76
2023-02-02T10:58:16.661Z,38.97
2023-02-02T10:59:19.226Z,43.46
2023-02-02T11:00:23.253Z,41.77
2023-02-02T11:01:26.203Z,35.05
2023-02-02T11:02:28.763Z,36.96
2023-02-02T11:03:31.359Z,41.88
2023-02-02T11:04:33.933Z,39.93
2023-02-02T11:05:36.461Z,44.57
2023-02-02T11:06:39.423Z,42.10
2023-02-02T11:07:41.979Z,43.71
2023-02-02T11:08:44.577Z,46.59
2023-02-02T11:09:47.330Z,41.69
2023-02-02T11:10:50.093Z,43.42
2023-02-02T11:11:52.756Z,37.45
2023-02-02T11:12:55.494Z,44.11
2023-02-02T11:13:58.117Z,39.69
2023-02-02T11:15:00.641Z,40.02
2023-02-02T11:16:05.816Z,37.96
2023-02-02T11:17:07.784Z,42.84
2023-02-02T11:18:10.342Z,44.37
2023-02-02T11:19:13.068Z,36.57
2023-02-02T11:20:15.826Z,37.35
2023-02-02T11:21:18.659Z,51.95
2023-02-02T11:22:21.120Z,41.21
2023-02-02T11:23:23.677Z,45.73
2023-02-02T11:24:26.279Z,42.17
2023-02-02T11:25:28.831Z,43.37
2023-02-02T11:26:31.831Z,36.93
2023-02-02T11:27:34.652Z,42.84
2023-02-02T11:28:37.202Z,38.18
2023-02-02T11:29:39.827Z,43.35
2023-02-02T11:30:42.708Z,48.31
2023-02-02T11:31:45.284Z,38.91
2023-02-02T11:32:48.022Z,37.61
2023-02-02T11:33:50.572Z,36.67
2023-02-02T11:34:53.176Z,40.11
2023-02-02T11:35:55.747Z,37.63
2023-02-02T11:36:58.729Z,38.23
2023-02-02T11:38:01.262Z,38.85
2023-02-02T11:39:03.723Z,33.26
2023-02-02T11:40:06.733Z,38.94
2023-02-02T11:41:09.286Z,39.93
2023-02-02T11:42:11.861Z,39.09
2023-02-02T11:43:14.409Z,35.52
2023-02-02T11:44:16.992Z,36.23
2023-02-02T11:45:19.588Z,35.90
2023-02-02T11:46:22.387Z,41.90
2023-02-02T11:47:24.905Z,41.87
2023-02-02T11:48:27.463Z,36.67
2023-02-02T11:49:30.030Z,43.27
2023-02-02T11:50:32.840Z,41.74
2023-02-02T11:51:35.407Z,46.51
2023-02-02T11:52:37.968Z,49.43
2023-02-02T11:53:40.526Z,42.89
2023-02-02T11:54:44.115Z,47.36
2023-02-02T11:55:46.662Z,45.69
2023-02-02T11:56:49.455Z,39.71
2023-02-02T11:57:52.011Z,40.45
2023-02-02T11:58:54.568Z,47.90
2023-02-02T11:59:57.129Z,40.85
2023-02-02T12:01:00.128Z,36.97
2023-02-02T12:02:02.871Z,42.97
2023-02-02T12:03:05.722Z,36.10
2023-02-02T12:04:08.551Z,42.87
2023-02-02T12:05:11.463Z,43.46
2023-02-02T12:06:14.339Z,39.27
2023-02-02T12:07:16.909Z,38.40
2023-02-02T12:08:19.496Z,43.85
2023-02-02T12:09:22.071Z,45.51
2023-02-02T12:10:25.336Z,38.89
2023-02-02T12:11:28.309Z,41.63
2023-02-02T12:12:30.868Z,39.99
2023-02-02T12:13:33.429Z,37.67
2023-02-02T12:14:36.024Z,40.81
2023-02-02T12:15:38.547Z,42.59
2023-02-02T12:16:41.331Z,43.76
2023-02-02T12:17:43.880Z,39.22
2023-02-02T12:18:46.453Z,45.72
2023-02-02T12:19:49.024Z,37.39
2023-02-02T12:20:51.806Z,43.00
2023-02-02T12:21:54.354Z,43.25
2023-02-02T12:22:56.935Z,38.29
2023-02-02T12:23:59.694Z,43.02
2023-02-02T12:25:02.255Z,45.00
2023-02-02T12:26:05.015Z,43.42
2023-02-02T12:27:07.584Z,37.64
2023-02-02T12:28:11.572Z,33.63
2023-02-02T12:29:14.279Z,31.39
2023-02-02T12:30:16.934Z,37.14
2023-02-02T12:31:19.544Z,42.89
2023-02-02T12:32:22.315Z,41.91
2023-02-02T12:33:24.890Z,36.53
2023-02-02T12:34:27.455Z,49.49
2023-02-02T12:35:30.018Z,39.96
2023-02-02T12:36:32.664Z,39.26
2023-02-02T12:37:35.230Z,42.11
2023-02-02T12:38:37.798Z,38.05
2023-02-02T12:39:40.364Z,33.84
2023-02-02T12:40:43.134Z,38.57
2023-02-02T12:41:45.708Z,35.51
2023-02-02T12:42:48.389Z,36.47
2023-02-02T12:43:51.315Z,40.81
2023-02-02T12:44:53.882Z,38.47
2023-02-02T12:45:56.465Z,35.41
2023-02-02T12:46:59.397Z,33.14
2023-02-02T12:48:02.245Z,34.39
2023-02-02T12:49:04.800Z,37.91
2023-02-02T12:50:08.001Z,37.83
2023-02-02T12:51:10.555Z,39.73
2023-02-02T12:52:13.118Z,36.53
2023-02-02T12:53:15.673Z,37.52
2023-02-02T12:54:32.712Z,41.60
2023-02-02T12:55:22.605Z,38.65
2023-02-02T12:56:25.576Z,38.71
2023-02-02T12:57:28.138Z,35.89
2023-02-02T12:58:30.706Z,43.54
2023-02-02T12:59:33.270Z,30.73
2023-02-02T13:00:35.928Z,36.99
2023-02-02T13:01:38.491Z,37.79
2023-02-02T13:02:41.059Z,37.72
2023-02-02T13:03:43.694Z,41.38
2023-02-02T13:04:46.253Z,40.45
2023-02-02T13:05:48.707Z,37.31
2023-02-02T13:06:51.682Z,38.88
2023-02-02T13:07:54.236Z,39.91
2023-02-02T13:08:56.853Z,42.42
2023-02-02T13:09:59.401Z,44.52
2023-02-02T13:11:02.267Z,43.12
2023-02-02T13:12:04.865Z,49.65
2023-02-02T13:13:07.398Z,51.31
2023-02-02T13:14:09.962Z,45.46
2023-02-02T13:15:12.541Z,55.09
2023-02-02T13:16:15.358Z,49.74
2023-02-02T13:17:17.960Z,73.65
2023-02-02T13:18:20.557Z,45.90
2023-02-02T13:19:23.119Z,49.49
2023-02-02T13:20:26.276Z,41.79
2023-02-02T13:21:29.262Z,48.01
2023-02-02T13:22:31.814Z,43.97
2023-02-02T13:23:34.423Z,42.04
2023-02-02T13:24:36.979Z,41.23
2023-02-02T13:25:39.529Z,42.86
2023-02-02T13:26:42.424Z,38.42